sensor_id;sensor_type;location;lat;lon;timestamp;P1;durP1;ratioP1;P2;durP2;ratioP2
76351;SDS011;65179;47.786;19.138;2022-12-10T00:00:38;11.07;;;5.75;;
76351;SDS011;65179;47.786;19.138;2022-12-10T00:03:03;8.82;;;5.47;;
76351;SDS011;65179;47.786;19.138;2022-12-10T00:05:29;9.87;;;5.90;;
76351;SDS011;65179;47.786;19.138;2022-12-10T00:07:54;10.47;;;5.60;;
76351;SDS011;65179;47.786;19.138;2022-12-10T00:10:20;9.77;;;5.30;;
76351;SDS011;65179;47.786;19.138;2022-12-10T00:12:45;11.48;;;5.35;;
76351;SDS011;65179;47.786;19.138;2022-12-10T00:15:11;9.70;;;5.40;;
76351;SDS011;65179;47.786;19.138;2022-12-10T00:17:36;8.60;;;4.70;;
76351;SDS011;65179;47.786;19.138;2022-12-10T00:20:02;10.20;;;4.90;;
76351;SDS011;65179;47.786;19.138;2022-12-10T00:22:27;8.15;;;4.20;;
76351;SDS011;65179;47.786;19.138;2022-12-10T00:24:53;7.97;;;4.00;;
76351;SDS011;65179;47.786;19.138;2022-12-10T00:27:18;7.13;;;3.83;;
76351;SDS011;65179;47.786;19.138;2022-12-10T00:29:43;7.80;;;4.20;;
76351;SDS011;65179;47.786;19.138;2022-12-10T00:32:09;6.87;;;3.97;;
76351;SDS011;65179;47.786;19.138;2022-12-10T00:34:34;6.67;;;3.60;;
76351;SDS011;65179;47.786;19.138;2022-12-10T00:37:00;7.23;;;3.80;;
76351;SDS011;65179;47.786;19.138;2022-12-10T00:39:26;8.33;;;4.10;;
76351;SDS011;65179;47.786;19.138;2022-12-10T00:41:52;7.50;;;3.85;;
76351;SDS011;65179;47.786;19.138;2022-12-10T00:44:17;7.70;;;4.07;;
76351;SDS011;65179;47.786;19.138;2022-12-10T00:46:42;7.93;;;4.05;;
76351;SDS011;65179;47.786;19.138;2022-12-10T00:49:08;7.90;;;3.90;;
76351;SDS011;65179;47.786;19.138;2022-12-10T00:51:34;8.95;;;3.92;;
76351;SDS011;65179;47.786;19.138;2022-12-10T00:53:59;7.33;;;3.90;;
76351;SDS011;65179;47.786;19.138;2022-12-10T00:56:26;6.53;;;3.77;;
76351;SDS011;65179;47.786;19.138;2022-12-10T00:58:54;9.60;;;4.22;;
76351;SDS011;65179;47.786;19.138;2022-12-10T01:03:59;8.88;;;5.00;;
76351;SDS011;65179;47.786;19.138;2022-12-10T01:06:28;10.87;;;5.00;;
76351;SDS011;65179;47.786;19.138;2022-12-10T01:08:57;7.97;;;4.25;;
76351;SDS011;65179;47.786;19.138;2022-12-10T01:11:28;6.87;;;3.47;;
76351;SDS011;65179;47.786;19.138;2022-12-10T01:13:55;7.45;;;4.15;;
76351;SDS011;65179;47.786;19.138;2022-12-10T01:16:21;6.47;;;3.47;;
76351;SDS011;65179;47.786;19.138;2022-12-10T01:18:47;6.47;;;3.70;;
76351;SDS011;65179;47.786;19.138;2022-12-10T01:21:14;10.25;;;3.75;;
76351;SDS011;65179;47.786;19.138;2022-12-10T01:23:43;7.83;;;4.00;;
76351;SDS011;65179;47.786;19.138;2022-12-10T01:26:14;6.40;;;3.70;;
76351;SDS011;65179;47.786;19.138;2022-12-10T01:28:44;7.28;;;3.85;;
76351;SDS011;65179;47.786;19.138;2022-12-10T01:31:11;6.45;;;3.47;;
76351;SDS011;65179;47.786;19.138;2022-12-10T01:33:42;7.32;;;4.25;;
76351;SDS011;65179;47.786;19.138;2022-12-10T01:36:11;8.18;;;4.18;;
76351;SDS011;65179;47.786;19.138;2022-12-10T01:38:38;7.87;;;4.37;;
76351;SDS011;65179;47.786;19.138;2022-12-10T01:41:04;8.63;;;3.90;;
76351;SDS011;65179;47.786;19.138;2022-12-10T01:43:47;8.20;;;4.18;;
76351;SDS011;65179;47.786;19.138;2022-12-10T01:46:15;8.05;;;4.50;;
76351;SDS011;65179;47.786;19.138;2022-12-10T01:48:40;10.03;;;4.43;;
76351;SDS011;65179;47.786;19.138;2022-12-10T01:51:06;8.45;;;4.65;;
76351;SDS011;65179;47.786;19.138;2022-12-10T01:53:32;10.35;;;4.30;;
76351;SDS011;65179;47.786;19.138;2022-12-10T01:55:58;10.10;;;5.12;;
76351;SDS011;65179;47.786;19.138;2022-12-10T01:58:24;8.18;;;4.50;;
76351;SDS011;65179;47.786;19.138;2022-12-10T02:00:54;9.03;;;4.57;;
76351;SDS011;65179;47.786;19.138;2022-12-10T02:03:37;8.45;;;4.55;;
76351;SDS011;65179;47.786;19.138;2022-12-10T02:06:13;8.43;;;4.50;;
76351;SDS011;65179;47.786;19.138;2022-12-10T02:11:31;10.93;;;5.20;;
76351;SDS011;65179;47.786;19.138;2022-12-10T02:14:14;10.48;;;5.22;;
76351;SDS011;65179;47.786;19.138;2022-12-10T02:16:50;11.25;;;5.43;;
76351;SDS011;65179;47.786;19.138;2022-12-10T02:22:01;8.43;;;4.72;;
76351;SDS011;65179;47.786;19.138;2022-12-10T02:24:29;10.80;;;5.20;;
76351;SDS011;65179;47.786;19.138;2022-12-10T02:27:02;9.63;;;4.43;;
76351;SDS011;65179;47.786;19.138;2022-12-10T02:29:35;9.95;;;5.45;;
76351;SDS011;65179;47.786;19.138;2022-12-10T02:32:04;11.10;;;4.85;;
76351;SDS011;65179;47.786;19.138;2022-12-10T02:34:36;9.95;;;4.97;;
76351;SDS011;65179;47.786;19.138;2022-12-10T02:37:06;10.30;;;5.20;;
76351;SDS011;65179;47.786;19.138;2022-12-10T02:39:38;15.15;;;5.00;;
76351;SDS011;65179;47.786;19.138;2022-12-10T02:42:07;10.25;;;5.60;;
76351;SDS011;65179;47.786;19.138;2022-12-10T02:44:35;12.05;;;5.97;;
76351;SDS011;65179;47.786;19.138;2022-12-10T02:47:02;13.23;;;6.43;;
76351;SDS011;65179;47.786;19.138;2022-12-10T02:49:28;11.87;;;5.67;;
76351;SDS011;65179;47.786;19.138;2022-12-10T02:51:55;13.30;;;6.97;;
76351;SDS011;65179;47.786;19.138;2022-12-10T02:54:34;13.17;;;6.57;;
76351;SDS011;65179;47.786;19.138;2022-12-10T02:57:07;14.20;;;6.70;;
76351;SDS011;65179;47.786;19.138;2022-12-10T02:59:45;13.65;;;7.10;;
76351;SDS011;65179;47.786;19.138;2022-12-10T03:02:20;14.55;;;5.85;;
76351;SDS011;65179;47.786;19.138;2022-12-10T03:07:28;15.77;;;7.07;;
76351;SDS011;65179;47.786;19.138;2022-12-10T03:10:06;14.68;;;7.40;;
76351;SDS011;65179;47.786;19.138;2022-12-10T03:12:48;19.17;;;8.57;;
76351;SDS011;65179;47.786;19.138;2022-12-10T03:15:20;12.77;;;6.68;;
76351;SDS011;65179;47.786;19.138;2022-12-10T03:17:48;17.20;;;7.12;;
76351;SDS011;65179;47.786;19.138;2022-12-10T03:20:15;15.60;;;7.00;;
76351;SDS011;65179;47.786;19.138;2022-12-10T03:22:43;16.08;;;6.65;;
76351;SDS011;65179;47.786;19.138;2022-12-10T03:25:12;15.23;;;7.43;;
76351;SDS011;65179;47.786;19.138;2022-12-10T03:27:40;19.73;;;7.10;;
76351;SDS011;65179;47.786;19.138;2022-12-10T03:30:07;19.40;;;6.65;;
76351;SDS011;65179;47.786;19.138;2022-12-10T03:32:33;23.47;;;7.27;;
76351;SDS011;65179;47.786;19.138;2022-12-10T03:34:59;16.92;;;6.85;;
76351;SDS011;65179;47.786;19.138;2022-12-10T03:37:26;17.67;;;6.50;;
76351;SDS011;65179;47.786;19.138;2022-12-10T03:39:54;15.97;;;6.73;;
76351;SDS011;65179;47.786;19.138;2022-12-10T03:42:21;15.95;;;7.65;;
76351;SDS011;65179;47.786;19.138;2022-12-10T03:44:49;15.37;;;7.23;;
76351;SDS011;65179;47.786;19.138;2022-12-10T03:47:15;19.00;;;8.82;;
76351;SDS011;65179;47.786;19.138;2022-12-10T03:49:41;16.95;;;8.55;;
76351;SDS011;65179;47.786;19.138;2022-12-10T03:52:08;16.70;;;7.27;;
76351;SDS011;65179;47.786;19.138;2022-12-10T03:54:34;14.50;;;7.07;;
76351;SDS011;65179;47.786;19.138;2022-12-10T03:56:59;16.12;;;7.12;;
76351;SDS011;65179;47.786;19.138;2022-12-10T03:59:24;19.00;;;7.73;;
76351;SDS011;65179;47.786;19.138;2022-12-10T04:01:50;13.37;;;6.50;;
76351;SDS011;65179;47.786;19.138;2022-12-10T04:04:16;14.98;;;6.95;;
76351;SDS011;65179;47.786;19.138;2022-12-10T04:06:41;13.23;;;6.10;;
76351;SDS011;65179;47.786;19.138;2022-12-10T04:09:11;13.43;;;6.40;;
76351;SDS011;65179;47.786;19.138;2022-12-10T04:11:38;12.95;;;6.57;;
76351;SDS011;65179;47.786;19.138;2022-12-10T04:14:03;14.75;;;7.00;;
76351;SDS011;65179;47.786;19.138;2022-12-10T04:16:47;10.80;;;5.60;;
76351;SDS011;65179;47.786;19.138;2022-12-10T04:19:13;13.15;;;6.35;;
76351;SDS011;65179;47.786;19.138;2022-12-10T04:21:42;10.82;;;5.47;;
76351;SDS011;65179;47.786;19.138;2022-12-10T04:24:29;12.13;;;6.20;;
76351;SDS011;65179;47.786;19.138;2022-12-10T04:27:28;12.07;;;6.00;;
76351;SDS011;65179;47.786;19.138;2022-12-10T04:29:56;13.05;;;5.93;;
76351;SDS011;65179;47.786;19.138;2022-12-10T04:32:23;11.67;;;6.47;;
76351;SDS011;65179;47.786;19.138;2022-12-10T04:34:49;12.13;;;6.12;;
76351;SDS011;65179;47.786;19.138;2022-12-10T04:37:15;12.45;;;6.43;;
76351;SDS011;65179;47.786;19.138;2022-12-10T04:39:41;11.65;;;5.18;;
76351;SDS011;65179;47.786;19.138;2022-12-10T04:42:07;14.33;;;6.03;;
76351;SDS011;65179;47.786;19.138;2022-12-10T04:44:33;12.93;;;5.90;;
76351;SDS011;65179;47.786;19.138;2022-12-10T04:46:59;12.98;;;6.55;;
76351;SDS011;65179;47.786;19.138;2022-12-10T04:49:24;16.33;;;7.00;;
76351;SDS011;65179;47.786;19.138;2022-12-10T04:51:50;15.20;;;6.95;;
76351;SDS011;65179;47.786;19.138;2022-12-10T04:54:17;13.65;;;6.28;;
76351;SDS011;65179;47.786;19.138;2022-12-10T04:56:44;13.30;;;6.28;;
76351;SDS011;65179;47.786;19.138;2022-12-10T04:59:10;15.00;;;7.57;;
76351;SDS011;65179;47.786;19.138;2022-12-10T05:01:36;18.02;;;8.45;;
76351;SDS011;65179;47.786;19.138;2022-12-10T05:04:03;15.95;;;6.97;;
76351;SDS011;65179;47.786;19.138;2022-12-10T05:06:29;14.13;;;7.62;;
76351;SDS011;65179;47.786;19.138;2022-12-10T05:08:56;14.77;;;7.20;;
76351;SDS011;65179;47.786;19.138;2022-12-10T05:11:23;18.58;;;8.07;;
76351;SDS011;65179;47.786;19.138;2022-12-10T05:13:49;17.00;;;7.90;;
76351;SDS011;65179;47.786;19.138;2022-12-10T05:16:16;17.73;;;7.70;;
76351;SDS011;65179;47.786;19.138;2022-12-10T05:18:43;22.80;;;8.90;;
76351;SDS011;65179;47.786;19.138;2022-12-10T05:21:10;21.95;;;9.30;;
76351;SDS011;65179;47.786;19.138;2022-12-10T05:23:38;21.42;;;9.43;;
76351;SDS011;65179;47.786;19.138;2022-12-10T05:28:34;22.37;;;10.38;;
76351;SDS011;65179;47.786;19.138;2022-12-10T05:31:02;23.10;;;10.60;;
76351;SDS011;65179;47.786;19.138;2022-12-10T05:33:27;18.47;;;9.60;;
76351;SDS011;65179;47.786;19.138;2022-12-10T05:38:19;25.05;;;12.57;;
76351;SDS011;65179;47.786;19.138;2022-12-10T05:40:45;21.80;;;11.00;;
76351;SDS011;65179;47.786;19.138;2022-12-10T05:43:10;21.27;;;9.87;;
76351;SDS011;65179;47.786;19.138;2022-12-10T05:45:36;23.75;;;10.85;;
76351;SDS011;65179;47.786;19.138;2022-12-10T05:48:01;23.97;;;11.50;;
76351;SDS011;65179;47.786;19.138;2022-12-10T05:50:27;23.33;;;11.70;;
76351;SDS011;65179;47.786;19.138;2022-12-10T05:52:52;26.97;;;11.63;;
76351;SDS011;65179;47.786;19.138;2022-12-10T05:55:17;22.73;;;11.73;;
76351;SDS011;65179;47.786;19.138;2022-12-10T05:57:43;22.50;;;11.27;;
76351;SDS011;65179;47.786;19.138;2022-12-10T06:00:09;22.00;;;11.07;;
76351;SDS011;65179;47.786;19.138;2022-12-10T06:02:35;23.90;;;11.50;;
76351;SDS011;65179;47.786;19.138;2022-12-10T06:05:00;23.13;;;11.40;;
76351;SDS011;65179;47.786;19.138;2022-12-10T06:07:26;21.37;;;11.47;;
76351;SDS011;65179;47.786;19.138;2022-12-10T06:09:51;22.15;;;11.55;;
76351;SDS011;65179;47.786;19.138;2022-12-10T06:12:17;24.57;;;11.73;;
76351;SDS011;65179;47.786;19.138;2022-12-10T06:14:42;25.30;;;12.40;;
76351;SDS011;65179;47.786;19.138;2022-12-10T06:17:08;24.47;;;12.67;;
76351;SDS011;65179;47.786;19.138;2022-12-10T06:19:33;23.17;;;10.95;;
76351;SDS011;65179;47.786;19.138;2022-12-10T06:21:59;23.35;;;11.43;;
76351;SDS011;65179;47.786;19.138;2022-12-10T06:24:25;21.92;;;10.75;;
76351;SDS011;65179;47.786;19.138;2022-12-10T06:26:50;23.30;;;11.03;;
76351;SDS011;65179;47.786;19.138;2022-12-10T06:29:16;19.37;;;11.00;;
76351;SDS011;65179;47.786;19.138;2022-12-10T06:31:42;22.92;;;10.60;;
76351;SDS011;65179;47.786;19.138;2022-12-10T06:34:08;23.55;;;11.52;;
76351;SDS011;65179;47.786;19.138;2022-12-10T06:36:34;22.33;;;11.33;;
76351;SDS011;65179;47.786;19.138;2022-12-10T06:38:59;22.13;;;10.87;;
76351;SDS011;65179;47.786;19.138;2022-12-10T06:41:25;22.13;;;10.80;;
76351;SDS011;65179;47.786;19.138;2022-12-10T06:43:50;19.53;;;10.10;;
76351;SDS011;65179;47.786;19.138;2022-12-10T06:46:17;20.43;;;10.37;;
76351;SDS011;65179;47.786;19.138;2022-12-10T06:48:44;24.33;;;12.80;;
76351;SDS011;65179;47.786;19.138;2022-12-10T06:51:11;21.37;;;10.87;;
76351;SDS011;65179;47.786;19.138;2022-12-10T06:53:38;20.42;;;11.48;;
76351;SDS011;65179;47.786;19.138;2022-12-10T06:56:04;24.35;;;11.02;;
76351;SDS011;65179;47.786;19.138;2022-12-10T06:58:32;22.87;;;11.30;;
76351;SDS011;65179;47.786;19.138;2022-12-10T07:01:02;25.65;;;12.15;;
76351;SDS011;65179;47.786;19.138;2022-12-10T07:03:55;25.17;;;12.27;;
76351;SDS011;65179;47.786;19.138;2022-12-10T07:06:21;25.88;;;12.88;;
76351;SDS011;65179;47.786;19.138;2022-12-10T07:08:48;26.00;;;13.13;;
76351;SDS011;65179;47.786;19.138;2022-12-10T07:11:15;24.05;;;12.77;;
76351;SDS011;65179;47.786;19.138;2022-12-10T07:13:45;23.58;;;12.50;;
76351;SDS011;65179;47.786;19.138;2022-12-10T07:16:11;24.45;;;13.48;;
76351;SDS011;65179;47.786;19.138;2022-12-10T07:18:39;24.75;;;13.48;;
76351;SDS011;65179;47.786;19.138;2022-12-10T07:21:14;23.70;;;13.50;;
76351;SDS011;65179;47.786;19.138;2022-12-10T07:23:41;26.02;;;13.75;;
76351;SDS011;65179;47.786;19.138;2022-12-10T07:26:07;26.75;;;13.90;;
76351;SDS011;65179;47.786;19.138;2022-12-10T07:28:33;27.27;;;13.63;;
76351;SDS011;65179;47.786;19.138;2022-12-10T07:31:02;27.70;;;14.45;;
76351;SDS011;65179;47.786;19.138;2022-12-10T07:33:29;28.02;;;14.13;;
76351;SDS011;65179;47.786;19.138;2022-12-10T07:35:54;30.10;;;15.15;;
76351;SDS011;65179;47.786;19.138;2022-12-10T07:38:19;27.10;;;14.97;;
76351;SDS011;65179;47.786;19.138;2022-12-10T07:40:45;28.47;;;15.30;;
76351;SDS011;65179;47.786;19.138;2022-12-10T07:43:10;27.73;;;15.57;;
76351;SDS011;65179;47.786;19.138;2022-12-10T07:45:36;25.27;;;13.13;;
76351;SDS011;65179;47.786;19.138;2022-12-10T07:48:01;29.20;;;15.67;;
76351;SDS011;65179;47.786;19.138;2022-12-10T07:50:27;29.70;;;15.60;;
76351;SDS011;65179;47.786;19.138;2022-12-10T07:52:52;28.27;;;15.23;;
76351;SDS011;65179;47.786;19.138;2022-12-10T07:55:17;30.90;;;16.63;;
76351;SDS011;65179;47.786;19.138;2022-12-10T07:57:43;33.35;;;16.77;;
76351;SDS011;65179;47.786;19.138;2022-12-10T08:00:08;38.50;;;17.93;;
76351;SDS011;65179;47.786;19.138;2022-12-10T08:02:35;30.33;;;16.67;;
76351;SDS011;65179;47.786;19.138;2022-12-10T08:05:00;31.97;;;16.70;;
76351;SDS011;65179;47.786;19.138;2022-12-10T08:07:26;33.00;;;16.93;;
76351;SDS011;65179;47.786;19.138;2022-12-10T08:09:51;28.20;;;15.30;;
76351;SDS011;65179;47.786;19.138;2022-12-10T08:12:16;32.20;;;16.33;;
76351;SDS011;65179;47.786;19.138;2022-12-10T08:14:42;32.07;;;17.47;;
76351;SDS011;65179;47.786;19.138;2022-12-10T08:17:07;33.33;;;17.10;;
76351;SDS011;65179;47.786;19.138;2022-12-10T08:19:33;35.50;;;17.63;;
76351;SDS011;65179;47.786;19.138;2022-12-10T08:21:58;34.15;;;17.65;;
76351;SDS011;65179;47.786;19.138;2022-12-10T08:24:24;33.47;;;16.57;;
76351;SDS011;65179;47.786;19.138;2022-12-10T08:26:49;30.07;;;16.20;;
76351;SDS011;65179;47.786;19.138;2022-12-10T08:29:14;31.37;;;16.50;;
76351;SDS011;65179;47.786;19.138;2022-12-10T08:31:40;31.62;;;16.58;;
76351;SDS011;65179;47.786;19.138;2022-12-10T08:34:10;33.40;;;16.42;;
76351;SDS011;65179;47.786;19.138;2022-12-10T08:36:38;32.93;;;16.37;;
76351;SDS011;65179;47.786;19.138;2022-12-10T08:39:03;33.10;;;16.67;;
76351;SDS011;65179;47.786;19.138;2022-12-10T08:41:29;32.53;;;16.33;;
76351;SDS011;65179;47.786;19.138;2022-12-10T08:43:54;34.93;;;17.03;;
76351;SDS011;65179;47.786;19.138;2022-12-10T08:46:20;32.42;;;16.58;;
76351;SDS011;65179;47.786;19.138;2022-12-10T08:48:46;34.63;;;17.80;;
76351;SDS011;65179;47.786;19.138;2022-12-10T08:51:14;37.10;;;18.63;;
76351;SDS011;65179;47.786;19.138;2022-12-10T08:53:40;36.15;;;17.02;;
76351;SDS011;65179;47.786;19.138;2022-12-10T08:56:06;34.05;;;18.27;;
76351;SDS011;65179;47.786;19.138;2022-12-10T08:58:31;31.40;;;17.00;;
76351;SDS011;65179;47.786;19.138;2022-12-10T09:00:57;36.45;;;17.90;;
76351;SDS011;65179;47.786;19.138;2022-12-10T09:03:23;36.42;;;17.62;;
76351;SDS011;65179;47.786;19.138;2022-12-10T09:05:49;35.08;;;17.25;;
76351;SDS011;65179;47.786;19.138;2022-12-10T09:08:15;32.80;;;17.10;;
76351;SDS011;65179;47.786;19.138;2022-12-10T09:10:40;33.83;;;17.53;;
76351;SDS011;65179;47.786;19.138;2022-12-10T09:13:06;31.52;;;16.85;;
76351;SDS011;65179;47.786;19.138;2022-12-10T09:15:32;33.67;;;18.00;;
76351;SDS011;65179;47.786;19.138;2022-12-10T09:17:57;36.30;;;18.37;;
76351;SDS011;65179;47.786;19.138;2022-12-10T09:20:23;31.97;;;17.30;;
76351;SDS011;65179;47.786;19.138;2022-12-10T09:22:48;34.80;;;16.80;;
76351;SDS011;65179;47.786;19.138;2022-12-10T09:25:14;33.72;;;17.37;;
76351;SDS011;65179;47.786;19.138;2022-12-10T09:27:41;30.58;;;16.02;;
76351;SDS011;65179;47.786;19.138;2022-12-10T09:30:09;34.45;;;16.60;;
76351;SDS011;65179;47.786;19.138;2022-12-10T09:32:35;32.83;;;16.85;;
76351;SDS011;65179;47.786;19.138;2022-12-10T09:35:00;31.52;;;15.23;;
76351;SDS011;65179;47.786;19.138;2022-12-10T09:37:26;29.20;;;15.75;;
76351;SDS011;65179;47.786;19.138;2022-12-10T09:39:51;30.00;;;16.03;;
76351;SDS011;65179;47.786;19.138;2022-12-10T09:42:18;29.77;;;15.80;;
76351;SDS011;65179;47.786;19.138;2022-12-10T09:51:11;31.42;;;15.90;;
76351;SDS011;65179;47.786;19.138;2022-12-10T09:53:43;31.97;;;15.13;;
76351;SDS011;65179;47.786;19.138;2022-12-10T09:56:21;29.08;;;14.73;;
76351;SDS011;65179;47.786;19.138;2022-12-10T09:58:48;31.98;;;15.07;;
76351;SDS011;65179;47.786;19.138;2022-12-10T10:01:14;26.07;;;13.20;;
76351;SDS011;65179;47.786;19.138;2022-12-10T10:03:43;24.77;;;12.52;;
76351;SDS011;65179;47.786;19.138;2022-12-10T10:06:09;27.13;;;13.23;;
76351;SDS011;65179;47.786;19.138;2022-12-10T10:08:40;27.70;;;12.68;;
76351;SDS011;65179;47.786;19.138;2022-12-10T10:11:11;26.50;;;13.23;;
76351;SDS011;65179;47.786;19.138;2022-12-10T10:13:47;26.48;;;13.05;;
76351;SDS011;65179;47.786;19.138;2022-12-10T10:19:01;28.60;;;13.70;;
76351;SDS011;65179;47.786;19.138;2022-12-10T10:21:28;28.67;;;13.25;;
76351;SDS011;65179;47.786;19.138;2022-12-10T10:23:56;27.23;;;13.32;;
76351;SDS011;65179;47.786;19.138;2022-12-10T10:26:25;28.67;;;13.65;;
76351;SDS011;65179;47.786;19.138;2022-12-10T10:29:04;32.47;;;15.43;;
76351;SDS011;65179;47.786;19.138;2022-12-10T10:31:32;29.95;;;14.35;;
76351;SDS011;65179;47.786;19.138;2022-12-10T10:34:01;27.62;;;14.73;;
76351;SDS011;65179;47.786;19.138;2022-12-10T10:36:32;27.00;;;13.32;;
76351;SDS011;65179;47.786;19.138;2022-12-10T10:39:07;29.77;;;13.70;;
76351;SDS011;65179;47.786;19.138;2022-12-10T10:41:50;32.70;;;15.43;;
76351;SDS011;65179;47.786;19.138;2022-12-10T10:44:19;34.33;;;15.35;;
76351;SDS011;65179;47.786;19.138;2022-12-10T10:46:48;34.80;;;15.77;;
76351;SDS011;65179;47.786;19.138;2022-12-10T10:51:50;29.27;;;13.43;;
76351;SDS011;65179;47.786;19.138;2022-12-10T10:54:33;30.05;;;14.48;;
76351;SDS011;65179;47.786;19.138;2022-12-10T10:57:03;35.22;;;16.87;;
76351;SDS011;65179;47.786;19.138;2022-12-10T10:59:32;34.97;;;15.85;;
76351;SDS011;65179;47.786;19.138;2022-12-10T11:04:54;32.22;;;14.82;;
76351;SDS011;65179;47.786;19.138;2022-12-10T11:07:37;33.22;;;14.70;;
76351;SDS011;65179;47.786;19.138;2022-12-10T11:10:18;33.50;;;15.85;;
76351;SDS011;65179;47.786;19.138;2022-12-10T11:17:47;31.77;;;14.17;;
76351;SDS011;65179;47.786;19.138;2022-12-10T11:20:19;35.13;;;14.30;;
76351;SDS011;65179;47.786;19.138;2022-12-10T11:22:54;28.10;;;13.85;;
76351;SDS011;65179;47.786;19.138;2022-12-10T11:36:21;38.30;;;17.07;;
76351;SDS011;65179;47.786;19.138;2022-12-10T11:44:48;34.08;;;17.17;;
76351;SDS011;65179;47.786;19.138;2022-12-10T12:01:42;40.45;;;18.60;;
76351;SDS011;65179;47.786;19.138;2022-12-10T12:06:57;37.58;;;18.37;;
76351;SDS011;65179;47.786;19.138;2022-12-10T12:17:59;37.38;;;17.48;;
76351;SDS011;65179;47.786;19.138;2022-12-10T12:20:30;40.17;;;18.83;;
76351;SDS011;65179;47.786;19.138;2022-12-10T12:23:10;43.25;;;19.15;;
76351;SDS011;65179;47.786;19.138;2022-12-10T12:25:46;38.15;;;17.60;;
76351;SDS011;65179;47.786;19.138;2022-12-10T12:28:22;35.45;;;17.65;;
76351;SDS011;65179;47.786;19.138;2022-12-10T12:30:57;40.17;;;18.93;;
76351;SDS011;65179;47.786;19.138;2022-12-10T12:33:32;40.38;;;19.50;;
76351;SDS011;65179;47.786;19.138;2022-12-10T12:36:11;37.33;;;18.95;;
76351;SDS011;65179;47.786;19.138;2022-12-10T12:39:01;38.58;;;19.05;;
76351;SDS011;65179;47.786;19.138;2022-12-10T12:44:14;39.40;;;18.57;;
76351;SDS011;65179;47.786;19.138;2022-12-10T12:46:47;42.47;;;19.73;;
76351;SDS011;65179;47.786;19.138;2022-12-10T12:52:04;39.03;;;19.00;;
76351;SDS011;65179;47.786;19.138;2022-12-10T12:54:53;36.83;;;18.23;;
76351;SDS011;65179;47.786;19.138;2022-12-10T12:57:45;39.93;;;19.03;;
76351;SDS011;65179;47.786;19.138;2022-12-10T13:00:18;39.35;;;19.08;;
76351;SDS011;65179;47.786;19.138;2022-12-10T13:05:35;38.67;;;18.37;;
76351;SDS011;65179;47.786;19.138;2022-12-10T13:10:45;39.67;;;18.77;;
76351;SDS011;65179;47.786;19.138;2022-12-10T13:15:49;38.97;;;19.08;;
76351;SDS011;65179;47.786;19.138;2022-12-10T13:28:29;43.40;;;20.25;;
76351;SDS011;65179;47.786;19.138;2022-12-10T13:39:32;47.42;;;21.08;;
76351;SDS011;65179;47.786;19.138;2022-12-10T13:45:35;42.92;;;20.50;;
76351;SDS011;65179;47.786;19.138;2022-12-10T13:47:54;43.33;;;20.88;;
76351;SDS011;65179;47.786;19.138;2022-12-10T13:50:51;43.80;;;19.40;;
76351;SDS011;65179;47.786;19.138;2022-12-10T13:53:39;42.25;;;19.55;;
76351;SDS011;65179;47.786;19.138;2022-12-10T13:56:34;40.93;;;19.17;;
76351;SDS011;65179;47.786;19.138;2022-12-10T14:02:11;43.38;;;19.90;;
76351;SDS011;65179;47.786;19.138;2022-12-10T14:07:46;44.03;;;20.62;;
76351;SDS011;65179;47.786;19.138;2022-12-10T14:10:16;41.43;;;21.53;;
76351;SDS011;65179;47.786;19.138;2022-12-10T14:12:43;42.55;;;20.92;;
76351;SDS011;65179;47.786;19.138;2022-12-10T14:15:20;44.72;;;21.60;;
76351;SDS011;65179;47.786;19.138;2022-12-10T14:17:49;45.88;;;21.87;;
76351;SDS011;65179;47.786;19.138;2022-12-10T14:20:26;42.40;;;23.77;;
76351;SDS011;65179;47.786;19.138;2022-12-10T14:22:55;41.27;;;22.47;;
76351;SDS011;65179;47.786;19.138;2022-12-10T14:25:44;41.80;;;21.00;;
76351;SDS011;65179;47.786;19.138;2022-12-10T14:28:14;41.97;;;22.10;;
76351;SDS011;65179;47.786;19.138;2022-12-10T14:30:45;42.15;;;19.77;;
76351;SDS011;65179;47.786;19.138;2022-12-10T14:33:14;44.35;;;19.80;;
76351;SDS011;65179;47.786;19.138;2022-12-10T14:35:42;39.20;;;19.30;;
76351;SDS011;65179;47.786;19.138;2022-12-10T14:38:16;43.08;;;20.77;;
76351;SDS011;65179;47.786;19.138;2022-12-10T14:40:44;42.05;;;21.12;;
76351;SDS011;65179;47.786;19.138;2022-12-10T14:43:17;40.38;;;19.30;;
76351;SDS011;65179;47.786;19.138;2022-12-10T14:45:49;42.83;;;20.52;;
76351;SDS011;65179;47.786;19.138;2022-12-10T14:48:18;41.77;;;19.47;;
76351;SDS011;65179;47.786;19.138;2022-12-10T14:50:44;46.60;;;21.87;;
76351;SDS011;65179;47.786;19.138;2022-12-10T14:53:16;55.13;;;24.50;;
76351;SDS011;65179;47.786;19.138;2022-12-10T14:55:48;44.42;;;20.83;;
76351;SDS011;65179;47.786;19.138;2022-12-10T14:58:18;37.35;;;19.10;;
76351;SDS011;65179;47.786;19.138;2022-12-10T15:00:50;41.35;;;19.67;;
76351;SDS011;65179;47.786;19.138;2022-12-10T15:03:21;38.87;;;20.30;;
76351;SDS011;65179;47.786;19.138;2022-12-10T15:05:58;41.42;;;19.80;;
76351;SDS011;65179;47.786;19.138;2022-12-10T15:08:26;39.67;;;19.05;;
76351;SDS011;65179;47.786;19.138;2022-12-10T15:10:56;37.00;;;18.70;;
76351;SDS011;65179;47.786;19.138;2022-12-10T15:13:25;40.50;;;20.17;;
76351;SDS011;65179;47.786;19.138;2022-12-10T15:16:02;39.70;;;19.60;;
76351;SDS011;65179;47.786;19.138;2022-12-10T15:18:32;41.83;;;19.87;;
76351;SDS011;65179;47.786;19.138;2022-12-10T15:21:05;41.25;;;19.48;;
76351;SDS011;65179;47.786;19.138;2022-12-10T15:23:36;40.70;;;19.70;;
76351;SDS011;65179;47.786;19.138;2022-12-10T15:28:36;40.97;;;20.40;;
76351;SDS011;65179;47.786;19.138;2022-12-10T15:33:45;40.33;;;21.20;;
76351;SDS011;65179;47.786;19.138;2022-12-10T15:36:15;42.47;;;19.58;;
76351;SDS011;65179;47.786;19.138;2022-12-10T15:38:44;39.17;;;19.40;;
76351;SDS011;65179;47.786;19.138;2022-12-10T15:44:05;41.97;;;19.75;;
76351;SDS011;65179;47.786;19.138;2022-12-10T15:49:39;44.30;;;20.15;;
76351;SDS011;65179;47.786;19.138;2022-12-10T15:52:05;39.37;;;18.67;;
76351;SDS011;65179;47.786;19.138;2022-12-10T15:54:34;38.85;;;18.62;;
76351;SDS011;65179;47.786;19.138;2022-12-10T15:59:46;35.60;;;18.50;;
76351;SDS011;65179;47.786;19.138;2022-12-10T16:07:47;40.10;;;18.30;;
76351;SDS011;65179;47.786;19.138;2022-12-10T16:10:15;39.33;;;19.73;;
76351;SDS011;65179;47.786;19.138;2022-12-10T16:12:42;41.72;;;20.00;;
76351;SDS011;65179;47.786;19.138;2022-12-10T16:15:20;39.42;;;19.55;;
76351;SDS011;65179;47.786;19.138;2022-12-10T16:17:49;40.38;;;18.98;;
76351;SDS011;65179;47.786;19.138;2022-12-10T16:20:23;36.63;;;18.55;;
76351;SDS011;65179;47.786;19.138;2022-12-10T16:22:53;35.03;;;17.87;;
76351;SDS011;65179;47.786;19.138;2022-12-10T16:25:20;41.85;;;19.75;;
76351;SDS011;65179;47.786;19.138;2022-12-10T16:27:47;36.42;;;18.00;;
76351;SDS011;65179;47.786;19.138;2022-12-10T16:30:17;38.50;;;18.33;;
76351;SDS011;65179;47.786;19.138;2022-12-10T16:32:50;36.27;;;18.00;;
76351;SDS011;65179;47.786;19.138;2022-12-10T16:35:16;36.63;;;17.25;;
76351;SDS011;65179;47.786;19.138;2022-12-10T16:37:46;31.62;;;16.50;;
76351;SDS011;65179;47.786;19.138;2022-12-10T16:40:15;37.13;;;19.03;;
76351;SDS011;65179;47.786;19.138;2022-12-10T16:42:42;36.08;;;19.12;;
76351;SDS011;65179;47.786;19.138;2022-12-10T16:45:24;37.25;;;18.17;;